createdAt,value
2022-08-18T00:01:05.892Z,99.90
2022-08-18T00:03:57.463Z,99.90
2022-08-18T00:06:20.821Z,99.90
2022-08-18T00:08:47.804Z,99.90
2022-08-18T00:11:15.711Z,99.90
2022-08-18T00:13:42.610Z,99.90
2022-08-18T00:16:09.960Z,99.90
2022-08-18T00:18:37.193Z,99.90
2022-08-18T00:21:04.620Z,99.90
2022-08-18T00:23:32.751Z,99.90
2022-08-18T00:26:00.271Z,99.90
2022-08-18T00:28:27.488Z,99.90
2022-08-18T00:30:54.612Z,99.90
2022-08-18T00:33:23.177Z,99.90
2022-08-18T00:35:50.170Z,99.90
2022-08-18T00:38:24.713Z,99.90
2022-08-18T00:40:56.425Z,99.90
2022-08-18T00:43:29.394Z,99.90
2022-08-18T00:45:56.823Z,99.90
2022-08-18T00:48:24.939Z,99.90
2022-08-18T00:50:54.877Z,99.90
2022-08-18T00:53:30.851Z,99.90
2022-08-18T00:56:06.910Z,99.90
2022-08-18T00:58:44.401Z,99.90
2022-08-18T01:01:13.788Z,99.90
2022-08-18T01:03:44.170Z,99.90
2022-08-18T01:06:27.273Z,99.90
2022-08-18T01:08:56.163Z,99.90
2022-08-18T01:11:23.537Z,99.90
2022-08-18T01:13:51.430Z,99.90
2022-08-18T01:16:37.472Z,99.90
2022-08-18T01:19:25.035Z,99.90
2022-08-18T01:21:59.696Z,99.90
2022-08-18T01:24:52.628Z,99.90
2022-08-18T01:27:20.112Z,99.90
2022-08-18T01:29:49.086Z,99.90
2022-08-18T01:32:23.510Z,99.90
2022-08-18T01:34:52.897Z,99.90
2022-08-18T01:37:23.334Z,99.90
2022-08-18T01:41:23.094Z,99.90
2022-08-18T01:42:39.788Z,99.90
2022-08-18T01:45:08.933Z,99.90
2022-08-18T01:47:47.343Z,99.90
2022-08-18T01:50:15.819Z,99.90
2022-08-18T01:52:43.438Z,99.90
2022-08-18T01:55:10.897Z,99.90
2022-08-18T01:57:45.472Z,99.90
2022-08-18T02:00:15.472Z,99.90
2022-08-18T02:02:43.019Z,99.90
2022-08-18T02:05:17.362Z,99.90
2022-08-18T02:07:44.641Z,99.90
2022-08-18T02:10:12.509Z,99.90
2022-08-18T02:12:45.204Z,99.90
2022-08-18T02:15:13.539Z,99.90
2022-08-18T02:17:43.132Z,99.90
2022-08-18T02:20:13.197Z,99.90
2022-08-18T02:22:40.851Z,99.90
2022-08-18T02:25:08.878Z,99.90
2022-08-18T02:27:37.830Z,99.90
2022-08-18T02:30:09.316Z,99.90
2022-08-18T02:32:36.754Z,99.90
2022-08-18T02:35:08.385Z,99.90
2022-08-18T02:37:47.724Z,99.90
2022-08-18T02:40:16.908Z,99.90
2022-08-18T02:42:45.609Z,99.90
2022-08-18T02:45:13.892Z,99.90
2022-08-18T02:47:43.002Z,99.90
2022-08-18T02:50:13.487Z,99.90
2022-08-18T02:52:41.466Z,99.90
2022-08-18T02:55:09.393Z,99.90
2022-08-18T02:57:36.436Z,99.90
2022-08-18T03:00:04.540Z,99.90
2022-08-18T03:02:32.939Z,99.90
2022-08-18T03:04:59.991Z,99.90
2022-08-18T03:07:27.415Z,99.90
2022-08-18T03:09:54.748Z,99.90
2022-08-18T03:12:21.899Z,99.90
2022-08-18T03:14:49.455Z,99.90
2022-08-18T03:17:16.620Z,99.90
2022-08-18T03:19:46.869Z,99.90
2022-08-18T03:22:28.578Z,99.90
2022-08-18T03:24:57.525Z,99.90
2022-08-18T03:27:28.609Z,99.90
2022-08-18T03:29:55.918Z,99.90
2022-08-18T03:32:25.678Z,99.90
2022-08-18T03:34:52.839Z,99.90
2022-08-18T03:37:20.110Z,99.90
2022-08-18T03:39:48.355Z,99.90
2022-08-18T03:42:15.409Z,99.90
2022-08-18T03:44:42.432Z,99.90
2022-08-18T03:47:11.215Z,99.90
2022-08-18T03:49:39.168Z,99.90
2022-08-18T03:52:09.405Z,99.90
2022-08-18T03:54:39.006Z,99.90
2022-08-18T03:57:09.417Z,99.90
2022-08-18T03:59:36.602Z,99.90
2022-08-18T04:02:05.372Z,99.90
2022-08-18T04:04:32.415Z,99.90
2022-08-18T04:07:09.797Z,99.90
2022-08-18T04:09:39.000Z,99.90
2022-08-18T04:12:15.500Z,99.90
2022-08-18T04:14:48.965Z,99.90
2022-08-18T04:17:23.459Z,99.90
2022-08-18T04:19:54.556Z,99.90
2022-08-18T04:22:22.950Z,99.90
2022-08-18T04:24:51.837Z,99.90
2022-08-18T04:27:20.917Z,99.90
2022-08-18T04:29:48.538Z,99.90
2022-08-18T04:32:15.616Z,99.90
2022-08-18T04:34:42.913Z,99.90
2022-08-18T04:37:12.100Z,99.90
2022-08-18T04:39:39.396Z,99.90
2022-08-18T04:42:06.656Z,99.90
2022-08-18T04:44:35.591Z,99.90
2022-08-18T04:47:02.736Z,99.90
2022-08-18T04:49:31.571Z,99.90
2022-08-18T04:52:30.983Z,99.90
2022-08-18T04:55:06.345Z,99.90
2022-08-18T04:57:34.727Z,99.90
2022-08-18T05:00:04.132Z,99.90
2022-08-18T05:02:33.189Z,99.90
2022-08-18T05:05:01.726Z,99.90
2022-08-18T05:07:31.276Z,99.90
2022-08-18T05:09:58.440Z,99.90
2022-08-18T05:12:26.271Z,99.90
2022-08-18T05:14:56.795Z,99.90
2022-08-18T05:17:30.166Z,99.90
2022-08-18T05:20:02.128Z,99.90
2022-08-18T05:22:31.327Z,99.90
2022-08-18T05:25:00.231Z,99.90
2022-08-18T05:27:32.994Z,99.90
2022-08-18T05:29:59.951Z,99.90
2022-08-18T05:32:48.367Z,99.90
2022-08-18T05:35:25.185Z,99.90
2022-08-18T05:38:03.946Z,99.90
2022-08-18T05:40:32.019Z,99.90
2022-08-18T05:43:00.281Z,99.90
2022-08-18T05:45:27.529Z,99.90
2022-08-18T05:48:02.033Z,99.90
2022-08-18T05:50:34.718Z,99.90
2022-08-18T05:53:14.708Z,99.90
2022-08-18T05:56:20.904Z,99.90
2022-08-18T05:58:51.959Z,99.90
2022-08-18T06:01:27.678Z,99.90
2022-08-18T06:04:02.589Z,99.90
2022-08-18T06:06:32.965Z,99.90
2022-08-18T06:09:17.150Z,99.90
2022-08-18T06:11:44.492Z,99.90
2022-08-18T06:14:13.431Z,99.90
2022-08-18T06:17:07.722Z,99.90
2022-08-18T06:19:58.190Z,99.90
2022-08-18T06:22:29.800Z,99.90
2022-08-18T06:25:44.192Z,99.90
2022-08-18T06:28:16.484Z,99.90
2022-08-18T06:31:06.547Z,99.90
2022-08-18T06:34:02.063Z,99.90
2022-08-18T06:36:58.396Z,99.90
2022-08-18T06:39:34.789Z,99.90
2022-08-18T06:42:05.605Z,99.90
2022-08-18T06:44:47.079Z,99.90
2022-08-18T06:58:16.042Z,99.90
2022-08-18T07:01:01.152Z,99.90
2022-08-18T07:06:23.270Z,99.90
2022-08-18T07:08:53.784Z,99.90
2022-08-18T07:11:25.940Z,99.90
2022-08-18T07:14:16.598Z,99.90
2022-08-18T07:16:58.206Z,99.90
2022-08-18T07:19:29.459Z,99.90
2022-08-18T07:22:18.417Z,99.90
2022-08-18T07:24:51.424Z,99.90
2022-08-18T07:27:21.635Z,99.90
2022-08-18T07:30:09.278Z,99.90
2022-08-18T07:32:44.945Z,99.90
2022-08-18T07:35:17.572Z,99.90
2022-08-18T07:37:54.749Z,99.90
2022-08-18T07:40:32.380Z,99.90
2022-08-18T07:43:19.171Z,99.90
2022-08-18T07:45:47.627Z,99.90
2022-08-18T07:48:39.952Z,99.90
2022-08-18T07:51:43.534Z,99.90
2022-08-18T07:54:47.211Z,99.90
2022-08-18T07:57:23.201Z,99.90
2022-08-18T08:00:47.817Z,99.90
2022-08-18T08:03:47.253Z,99.90
2022-08-18T08:06:20.590Z,99.90
2022-08-18T08:09:18.167Z,99.90
2022-08-18T08:11:54.406Z,99.90
2022-08-18T08:14:27.603Z,99.90
2022-08-18T08:17:38.864Z,99.90
2022-08-18T08:20:39.307Z,99.90
2022-08-18T08:23:15.103Z,99.90
2022-08-18T08:26:10.053Z,99.90
2022-08-18T08:28:48.689Z,99.90
2022-08-18T08:37:49.482Z,99.90
2022-08-18T08:40:39.252Z,99.90
2022-08-18T08:43:15.855Z,99.90
2022-08-18T08:45:49.679Z,99.90
2022-08-18T08:48:32.134Z,99.90
2022-08-18T08:54:18.049Z,99.90
2022-08-18T08:56:49.180Z,99.90
2022-08-18T08:59:19.248Z,99.90
2022-08-18T09:14:38.057Z,99.90
2022-08-18T09:17:15.431Z,99.90
2022-08-18T09:20:00.180Z,99.90
2022-08-18T09:22:36.528Z,99.90
2022-08-18T09:25:30.726Z,99.90
2022-08-18T09:28:16.334Z,99.90
2022-08-18T09:30:47.726Z,99.90
2022-08-18T09:33:32.074Z,99.90
2022-08-18T09:36:10.515Z,99.90
2022-08-18T09:39:39.282Z,99.90
2022-08-18T09:42:29.889Z,99.90
2022-08-18T09:45:01.610Z,99.90
2022-08-18T09:47:30.322Z,99.90
2022-08-18T09:50:45.124Z,99.90
2022-08-18T09:53:54.905Z,99.90
2022-08-18T09:56:53.864Z,99.90
2022-08-18T09:59:38.005Z,99.90
2022-08-18T10:02:18.709Z,99.90
2022-08-18T10:04:51.237Z,99.90
2022-08-18T10:11:01.480Z,99.90
2022-08-18T10:17:15.775Z,99.90
2022-08-18T10:19:49.830Z,99.90
2022-08-18T10:22:41.326Z,99.90
2022-08-18T10:27:58.734Z,99.90
2022-08-18T10:30:36.448Z,99.90
2022-08-18T10:33:55.033Z,99.90
2022-08-18T10:36:59.392Z,99.90
2022-08-18T10:39:39.767Z,99.90
2022-08-18T10:45:30.958Z,99.90
2022-08-18T10:48:17.128Z,99.90
2022-08-18T10:50:59.186Z,99.90
2022-08-18T10:53:56.583Z,99.90
2022-08-18T10:56:55.708Z,99.90
2022-08-18T11:03:42.839Z,99.90
2022-08-18T11:06:18.223Z,99.90
2022-08-18T11:08:55.276Z,99.90
2022-08-18T11:11:39.257Z,99.90
2022-08-18T11:14:11.465Z,99.90
2022-08-18T11:17:02.761Z,99.90
2022-08-18T11:19:42.117Z,99.90
2022-08-18T11:22:31.468Z,99.90
2022-08-18T11:25:01.176Z,99.90
2022-08-18T11:27:35.266Z,99.90
2022-08-18T11:30:05.833Z,99.90
2022-08-18T11:32:46.563Z,99.90
2022-08-18T11:35:24.269Z,99.90
2022-08-18T11:38:23.238Z,99.90
2022-08-18T11:41:13.885Z,99.90
2022-08-18T11:43:43.010Z,99.90
2022-08-18T11:46:30.319Z,99.90
2022-08-18T11:49:13.949Z,99.90
2022-08-18T11:51:55.824Z,99.90
2022-08-18T11:54:50.673Z,99.90
2022-08-18T11:57:52.945Z,99.90
2022-08-18T12:00:43.297Z,99.90
2022-08-18T12:03:24.091Z,99.90
2022-08-18T12:05:56.185Z,99.90
2022-08-18T12:08:57.277Z,99.90
2022-08-18T12:11:29.761Z,99.90
2022-08-18T12:16:53.991Z,99.90
2022-08-18T12:22:29.014Z,99.90
2022-08-18T12:24:56.547Z,99.90
2022-08-18T12:27:25.996Z,99.90
2022-08-18T12:30:01.842Z,99.90
2022-08-18T12:32:46.708Z,99.90
2022-08-18T12:35:21.931Z,99.90
2022-08-18T12:38:13.032Z,99.90
2022-08-18T12:40:36.826Z,99.90
2022-08-18T12:43:05.827Z,99.90
2022-08-18T12:45:34.393Z,99.90
2022-08-18T12:48:04.807Z,99.90
2022-08-18T12:53:29.676Z,99.90
2022-08-18T12:56:25.018Z,99.90
2022-08-18T12:58:53.325Z,99.90
2022-08-18T13:01:23.330Z,99.90
2022-08-18T13:06:59.827Z,99.90
2022-08-18T13:09:35.561Z,99.90
2022-08-18T13:12:16.757Z,99.90
2022-08-18T13:14:45.166Z,99.90
2022-08-18T13:17:33.104Z,99.90
2022-08-18T13:20:09.616Z,99.90
2022-08-18T13:22:42.750Z,99.90
2022-08-18T13:25:32.791Z,99.90
2022-08-18T13:28:03.428Z,99.90
2022-08-18T13:30:32.332Z,99.90
2022-08-18T13:33:06.137Z,99.90
2022-08-18T13:35:54.050Z,99.90
2022-08-18T13:38:27.252Z,99.90
2022-08-18T13:40:58.914Z,99.90
2022-08-18T13:43:34.515Z,99.90
2022-08-18T13:46:03.246Z,99.90
2022-08-18T13:48:31.953Z,99.90
2022-08-18T13:51:01.688Z,99.90
2022-08-18T13:53:31.522Z,99.90
2022-08-18T13:55:59.610Z,99.90
2022-08-18T13:58:28.479Z,99.90
2022-08-18T14:01:37.219Z,99.90
2022-08-18T14:03:51.819Z,99.90
2022-08-18T14:06:23.035Z,99.90
2022-08-18T14:08:52.576Z,99.90
2022-08-18T14:11:33.039Z,99.90
2022-08-18T14:14:01.861Z,99.90
2022-08-18T14:16:29.282Z,99.90
2022-08-18T14:19:17.834Z,99.90
2022-08-18T14:22:11.162Z,99.90
2022-08-18T14:24:58.956Z,99.90
2022-08-18T14:27:34.948Z,99.90
2022-08-18T14:30:08.573Z,99.90
2022-08-18T14:32:36.849Z,99.90
2022-08-18T14:36:03.713Z,99.90
2022-08-18T14:38:05.606Z,99.90
2022-08-18T14:40:33.578Z,99.90
2022-08-18T14:43:06.508Z,99.20
2022-08-18T14:45:35.867Z,98.80
2022-08-18T14:48:11.029Z,98.50
2022-08-18T14:50:49.060Z,98.70
2022-08-18T14:53:20.501Z,97.50
2022-08-18T14:55:52.296Z,97.80
2022-08-18T14:58:20.836Z,98.20
2022-08-18T15:00:53.866Z,98.10
2022-08-18T15:03:30.828Z,98.80
2022-08-18T15:06:00.261Z,99.10
2022-08-18T15:08:28.249Z,97.00
2022-08-18T15:10:57.407Z,98.60
2022-08-18T15:13:26.390Z,96.20
2022-08-18T15:15:54.044Z,96.00
2022-08-18T15:18:22.623Z,96.20
2022-08-18T15:21:19.575Z,95.50
2022-08-18T15:24:20.007Z,95.90
2022-08-18T15:26:51.739Z,95.90
2022-08-18T15:29:19.202Z,96.00
2022-08-18T15:31:50.840Z,96.70
2022-08-18T15:34:20.670Z,97.20
2022-08-18T15:36:48.699Z,96.20
2022-08-18T15:39:18.921Z,96.20
2022-08-18T15:44:21.943Z,96.30
2022-08-18T15:46:51.396Z,95.50
2022-08-18T15:49:22.911Z,96.30
2022-08-18T15:51:52.492Z,95.90
2022-08-18T15:54:19.805Z,96.40
2022-08-18T15:56:57.696Z,95.60
2022-08-18T15:59:27.186Z,95.30
2022-08-18T16:02:01.507Z,94.80
2022-08-18T16:04:28.791Z,94.80
2022-08-18T16:06:56.462Z,94.30
2022-08-18T16:09:23.353Z,95.00
2022-08-18T16:11:50.517Z,95.90
2022-08-18T16:14:17.716Z,93.60
2022-08-18T16:16:45.143Z,93.50
2022-08-18T16:19:12.427Z,93.60
2022-08-18T16:21:40.537Z,93.50
2022-08-18T16:24:09.418Z,93.80
2022-08-18T16:26:37.008Z,93.30
2022-08-18T16:29:03.935Z,94.10
2022-08-18T16:31:31.311Z,94.40
2022-08-18T16:33:58.502Z,94.00
2022-08-18T16:36:26.412Z,93.90
2022-08-18T16:38:58.180Z,95.50
2022-08-18T16:41:26.739Z,93.60
2022-08-18T16:43:54.821Z,93.30
2022-08-18T16:46:26.065Z,94.40
2022-08-18T16:48:57.559Z,94.30
2022-08-18T16:51:27.431Z,94.20
2022-08-18T16:53:54.785Z,93.90
2022-08-18T16:56:26.551Z,94.20
2022-08-18T16:59:13.241Z,94.30
2022-08-18T17:01:59.671Z,94.30
2022-08-18T17:04:29.774Z,94.80
2022-08-18T17:06:57.320Z,94.50
2022-08-18T17:09:25.238Z,93.80
2022-08-18T17:11:53.175Z,93.60
2022-08-18T17:14:25.564Z,94.10
2022-08-18T17:16:54.390Z,94.00
2022-08-18T17:19:26.169Z,93.70
2022-08-18T17:21:53.307Z,93.80
2022-08-18T17:24:31.027Z,93.70
2022-08-18T17:27:26.409Z,94.40
2022-08-18T17:30:12.382Z,93.90
2022-08-18T17:32:54.880Z,93.80
2022-08-18T17:35:34.760Z,94.40
2022-08-18T17:38:17.278Z,94.30
2022-08-18T17:40:48.106Z,94.20
2022-08-18T17:43:24.351Z,94.40
2022-08-18T17:46:27.843Z,94.70
2022-08-18T17:49:17.965Z,94.20
2022-08-18T17:51:55.402Z,94.70
2022-08-18T17:54:37.320Z,95.50
2022-08-18T17:57:08.946Z,95.50
2022-08-18T17:59:51.348Z,95.50
2022-08-18T18:02:30.606Z,95.70
2022-08-18T18:05:02.412Z,96.10
2022-08-18T18:07:38.525Z,96.50
2022-08-18T18:10:08.017Z,96.80
2022-08-18T18:12:37.415Z,97.00
2022-08-18T18:15:11.780Z,98.10
2022-08-18T18:17:41.290Z,98.70
2022-08-18T18:20:40.443Z,99.40
2022-08-18T18:23:20.721Z,99.20
2022-08-18T18:25:48.033Z,99.80
2022-08-18T18:28:35.427Z,99.50
2022-08-18T18:31:27.889Z,99.80
2022-08-18T18:34:03.108Z,99.80
2022-08-18T18:36:35.692Z,99.90
2022-08-18T18:39:16.112Z,99.90
2022-08-18T18:41:43.416Z,99.90
2022-08-18T18:44:13.213Z,99.90
2022-08-18T18:46:44.384Z,99.90
2022-08-18T18:49:31.684Z,99.90
2022-08-18T18:52:41.532Z,99.90
2022-08-18T18:55:24.113Z,99.90
2022-08-18T18:58:29.315Z,99.90
2022-08-18T19:01:03.956Z,99.90
2022-08-18T19:03:44.455Z,99.90
2022-08-18T19:06:34.438Z,99.90
2022-08-18T19:09:22.248Z,99.90
2022-08-18T19:12:16.903Z,99.90
2022-08-18T19:15:00.159Z,99.90
2022-08-18T19:17:49.728Z,99.90
2022-08-18T19:20:23.850Z,99.90
2022-08-18T19:23:04.420Z,99.90
2022-08-18T19:25:41.458Z,99.90
2022-08-18T19:28:17.836Z,99.90
2022-08-18T19:30:49.986Z,99.90
2022-08-18T19:33:45.089Z,99.90
2022-08-18T19:36:40.100Z,99.90
2022-08-18T19:39:29.990Z,99.90
2022-08-18T19:42:09.461Z,99.90
2022-08-18T19:45:15.246Z,99.90
2022-08-18T19:47:59.347Z,99.90
2022-08-18T19:50:33.705Z,99.90
2022-08-18T19:53:09.436Z,99.90
2022-08-18T19:56:02.296Z,99.90
2022-08-18T19:59:15.744Z,99.90
2022-08-18T20:02:07.434Z,99.90
2022-08-18T20:04:53.336Z,99.90
2022-08-18T20:07:55.361Z,99.90
2022-08-18T20:10:33.188Z,99.90
2022-08-18T20:13:42.538Z,99.90
2022-08-18T20:16:44.146Z,99.90
2022-08-18T20:19:34.464Z,99.90
2022-08-18T20:22:10.465Z,99.90
2022-08-18T20:24:46.658Z,99.90
2022-08-18T20:27:36.274Z,99.90
2022-08-18T20:30:24.466Z,99.90
2022-08-18T20:33:09.890Z,99.90
2022-08-18T20:35:45.805Z,99.90
2022-08-18T20:38:35.281Z,99.90
2022-08-18T20:41:28.034Z,99.90
2022-08-18T20:44:15.117Z,99.90
2022-08-18T20:46:51.681Z,99.90
2022-08-18T20:49:43.447Z,99.90
2022-08-18T20:53:01.387Z,99.90
2022-08-18T20:55:45.715Z,99.90
2022-08-18T20:58:18.368Z,99.90
2022-08-18T21:00:51.214Z,99.90
2022-08-18T21:03:20.749Z,99.90
2022-08-18T21:05:55.612Z,99.90
2022-08-18T21:08:27.556Z,99.90
2022-08-18T21:11:05.593Z,99.90
2022-08-18T21:13:40.728Z,99.90
2022-08-18T21:16:38.308Z,99.90
2022-08-18T21:19:29.253Z,99.90
2022-08-18T21:22:00.465Z,99.90
2022-08-18T21:24:28.199Z,99.90
2022-08-18T21:27:02.825Z,99.90
2022-08-18T21:29:47.076Z,99.90
2022-08-18T21:32:25.121Z,99.90
2022-08-18T21:34:52.406Z,99.90
2022-08-18T21:37:21.043Z,99.90
2022-08-18T21:39:51.960Z,99.90
2022-08-18T21:42:22.550Z,99.90
2022-08-18T21:44:54.471Z,99.90
2022-08-18T21:47:26.215Z,99.90
2022-08-18T21:49:59.878Z,99.90
2022-08-18T21:52:30.355Z,99.90
2022-08-18T21:55:04.585Z,99.90
2022-08-18T21:57:49.602Z,99.90
2022-08-18T22:00:26.413Z,99.90
2022-08-18T22:03:18.257Z,99.90
2022-08-18T22:06:00.688Z,99.90
2022-08-18T22:08:32.754Z,99.90
2022-08-18T22:11:59.396Z,99.90
2022-08-18T22:14:27.266Z,99.90
2022-08-18T22:17:14.305Z,99.90
2022-08-18T22:19:41.427Z,99.90
2022-08-18T22:22:27.274Z,99.90
2022-08-18T22:24:59.175Z,99.90
2022-08-18T22:27:26.803Z,99.90
2022-08-18T22:30:03.791Z,99.90
2022-08-18T22:32:36.502Z,99.90
2022-08-18T22:35:05.561Z,99.90
2022-08-18T22:37:50.103Z,99.90
2022-08-18T22:40:21.637Z,99.90
2022-08-18T22:42:49.805Z,99.90
2022-08-18T22:45:18.896Z,99.90
2022-08-18T22:47:45.862Z,99.90
2022-08-18T22:50:14.038Z,99.90
2022-08-18T22:52:48.608Z,99.90
2022-08-18T22:55:23.660Z,99.90
2022-08-18T22:57:56.347Z,99.90
2022-08-18T23:00:25.521Z,99.90
2022-08-18T23:02:54.081Z,99.90
2022-08-18T23:05:21.802Z,99.90
2022-08-18T23:07:49.772Z,99.90
2022-08-18T23:10:17.677Z,99.90
2022-08-18T23:12:46.974Z,99.90
2022-08-18T23:15:17.316Z,99.90
2022-08-18T23:17:44.674Z,99.90
2022-08-18T23:20:17.567Z,99.90
2022-08-18T23:22:47.021Z,99.90
2022-08-18T23:25:14.283Z,99.90
2022-08-18T23:27:42.908Z,99.90
2022-08-18T23:30:10.878Z,99.90
2022-08-18T23:32:38.533Z,99.90
2022-08-18T23:35:05.916Z,99.90
2022-08-18T23:37:33.414Z,99.90
2022-08-18T23:40:00.510Z,99.90
2022-08-18T23:42:28.735Z,99.90
2022-08-18T23:45:04.001Z,99.90
2022-08-18T23:47:31.560Z,99.90
2022-08-18T23:49:59.173Z,99.90
2022-08-18T23:52:26.159Z,99.90
2022-08-18T23:54:53.216Z,99.90
2022-08-18T23:57:20.184Z,99.90
2022-08-18T23:59:47.058Z,99.90
